Estación Meteorológica Peña el Pijo (Robertgarden) [ 06/24/18 10:44:35 CEST ]

Fecha Hora Presion(HPa) Temp (°C) Humedad % Rocio (°C) Viento ( m/s) Direccion Lluvia 1Hora(mm) Lluvia 24H(mm) LLuvia Total(mm)
2018-Apr-04 01:01:40 1002.900 8.8 63 2.1         185.44
2018-Apr-04 02:01:43 1003.000 7.8 64 1.4         185.44
2018-Apr-04 03:01:41 1003.000 6.4 68 0.9         185.44
2018-Apr-04 04:01:39 1002.900 6.9 68 1.4         185.44
2018-Apr-04 05:06:56 1002.900 6.9 68 1.4 0.3 NW     185.44
2018-Apr-04 06:01:39 1003.200 7.0 69 1.7         185.44
2018-Apr-04 07:01:47 1003.400 7.6 67 1.9 2.0 WNW     185.44
2018-Apr-04 08:01:46 1003.800 7.4 66 1.4 0.7 NW     185.44
2018-Apr-04 09:01:27 1004.800 8.6 60 1.3         185.44
2018-Apr-04 10:01:46 1005.300 10.2 52 0.8 2.4 NE     185.44
2018-Apr-04 11:01:46 1006.000 11.5 50 1.4 4.2 N     185.44
2018-Apr-04 12:01:46 1006.800 12.1 49 1.7         185.44
2018-Apr-04 13:01:50 1006.700 13.5 45 1.7         185.44
2018-Apr-04 14:02:00 1006.000 13.6 42 0.9         185.44
2018-Apr-04 15:01:50 1006.200 14.9 39 1.0         185.44
2018-Apr-04 16:02:00 1006.800 16.1 35 0.5         185.44
2018-Apr-04 17:01:52 1006.700 15.9 36 0.7         185.44
2018-Apr-04 18:01:59 1006.800 14.9 36 -0.1 1.9 NW     185.44
2018-Apr-04 19:01:41 1007.600 13.1 40 -0.2 2.0 NNW     185.44
2018-Apr-04 20:01:50 1008.200 11.6 46 0.3         185.44
2018-Apr-04 21:01:52 1008.600 10.0 51 0.4         185.44
2018-Apr-04 22:01:42 1009.300 9.1 56 0.8         185.44
2018-Apr-04 23:01:47 1010.200 7.1 61 0.1         185.44

Temperatura Máxima:16°    Temperatura Mínima:
Presión Máxima:1010.200 Hpa    Presión Mínima:1002.900 Hpa


Volver